createdAt,value
2017-10-30T00:01:18.577Z,1.40
2017-10-30T00:03:45.172Z,0.90
2017-10-30T00:06:11.836Z,1.63
2017-10-30T00:08:38.430Z,1.80
2017-10-30T00:11:04.670Z,1.83
2017-10-30T00:13:30.894Z,1.90
2017-10-30T00:15:57.154Z,2.00
2017-10-30T00:18:23.378Z,1.77
2017-10-30T00:20:49.607Z,1.37
2017-10-30T00:23:16.081Z,1.30
2017-10-30T00:25:42.647Z,1.97
2017-10-30T00:28:09.105Z,1.30
2017-10-30T00:30:35.741Z,1.60
2017-10-30T00:33:01.999Z,2.20
2017-10-30T00:35:28.591Z,1.93
2017-10-30T00:37:55.108Z,2.03
2017-10-30T00:40:21.550Z,1.80
2017-10-30T00:42:48.113Z,1.60
2017-10-30T00:45:14.732Z,1.50
2017-10-30T00:47:41.148Z,1.50
2017-10-30T00:50:07.566Z,1.90
2017-10-30T00:52:34.032Z,1.70
2017-10-30T00:55:00.486Z,2.23
2017-10-30T00:57:27.119Z,2.73
2017-10-30T00:59:53.609Z,1.80
2017-10-30T01:02:20.050Z,2.37
2017-10-30T01:04:46.492Z,2.30
2017-10-30T01:07:12.909Z,1.90
2017-10-30T01:09:39.350Z,2.20
2017-10-30T01:12:05.792Z,1.47
2017-10-30T01:14:32.210Z,1.90
2017-10-30T01:16:58.800Z,1.87
2017-10-30T01:19:25.436Z,1.93
2017-10-30T01:21:52.058Z,1.80
2017-10-30T01:24:18.511Z,2.17
2017-10-30T01:26:44.994Z,1.43
2017-10-30T01:29:11.535Z,2.10
2017-10-30T01:31:38.003Z,1.60
2017-10-30T01:34:04.647Z,1.77
2017-10-30T01:36:31.080Z,1.50
2017-10-30T01:38:57.724Z,1.50
2017-10-30T01:41:24.019Z,1.70
2017-10-30T01:43:50.383Z,1.37
2017-10-30T01:46:17.001Z,1.90
2017-10-30T01:48:43.443Z,1.30
2017-10-30T01:51:10.093Z,1.60
2017-10-30T01:53:36.704Z,1.40
2017-10-30T01:56:03.148Z,1.37
2017-10-30T01:58:29.667Z,2.93
2017-10-30T02:00:56.104Z,1.77
2017-10-30T02:03:22.519Z,1.53
2017-10-30T02:05:48.961Z,1.07
2017-10-30T02:08:15.480Z,1.30
2017-10-30T02:10:41.821Z,1.90
2017-10-30T02:13:08.261Z,1.70
2017-10-30T02:15:34.679Z,1.23
2017-10-30T02:18:01.121Z,1.30
2017-10-30T02:20:27.568Z,1.67
2017-10-30T02:22:54.006Z,1.50
2017-10-30T02:25:20.521Z,1.30
2017-10-30T02:27:46.814Z,1.60
2017-10-30T02:30:13.245Z,2.10
2017-10-30T02:32:39.870Z,3.70
2017-10-30T02:35:06.364Z,1.70
2017-10-30T02:37:32.817Z,1.40
2017-10-30T02:39:59.220Z,1.50
2017-10-30T02:42:25.665Z,2.00
2017-10-30T02:44:52.111Z,1.10
2017-10-30T02:47:18.621Z,1.77
2017-10-30T02:49:45.088Z,1.47
2017-10-30T02:52:11.530Z,1.50
2017-10-30T02:54:37.977Z,1.73
2017-10-30T02:57:04.616Z,1.70
2017-10-30T02:59:31.232Z,1.40
2017-10-30T03:01:57.690Z,1.50
2017-10-30T03:04:24.120Z,1.63
2017-10-30T03:06:50.340Z,1.30
2017-10-30T03:09:16.749Z,1.50
2017-10-30T03:11:43.217Z,3.53
2017-10-30T03:14:09.709Z,6.60
2017-10-30T03:16:36.273Z,2.97
2017-10-30T03:19:02.924Z,2.47
2017-10-30T03:21:29.153Z,3.20
2017-10-30T03:23:55.799Z,2.27
2017-10-30T03:26:22.433Z,2.50
2017-10-30T03:28:49.059Z,2.47
2017-10-30T03:31:15.503Z,2.90
2017-10-30T03:33:42.117Z,1.90
2017-10-30T03:36:08.573Z,1.30
2017-10-30T03:38:35.216Z,1.90
2017-10-30T03:41:01.842Z,2.80
2017-10-30T03:43:28.084Z,2.40
2017-10-30T03:45:54.516Z,2.70
2017-10-30T03:48:21.143Z,2.27
2017-10-30T03:50:47.791Z,2.63
2017-10-30T03:53:14.275Z,2.30
2017-10-30T03:55:40.719Z,2.50
2017-10-30T03:58:07.134Z,2.80
2017-10-30T04:00:33.728Z,3.17
2017-10-30T04:03:00.365Z,2.90
2017-10-30T04:05:26.855Z,2.70
2017-10-30T04:07:53.277Z,2.70
2017-10-30T04:10:19.744Z,3.10
2017-10-30T04:12:46.099Z,2.10
2017-10-30T04:15:12.535Z,2.03
2017-10-30T04:17:38.810Z,2.37
2017-10-30T04:20:05.385Z,2.70
2017-10-30T04:22:31.935Z,2.47
2017-10-30T04:24:58.373Z,3.30
2017-10-30T04:27:25.013Z,3.90
2017-10-30T04:29:51.629Z,3.20
2017-10-30T04:32:18.069Z,3.30
2017-10-30T04:34:44.564Z,2.97
2017-10-30T04:37:11.003Z,2.60
2017-10-30T04:39:37.482Z,2.67
2017-10-30T04:42:04.121Z,2.00
2017-10-30T04:44:30.728Z,2.47
2017-10-30T04:46:57.145Z,2.40
2017-10-30T04:49:23.587Z,2.10
2017-10-30T04:51:50.006Z,5.50
2017-10-30T04:54:17.005Z,3.40
2017-10-30T04:56:43.649Z,3.07
2017-10-30T04:59:10.155Z,2.63
2017-10-30T05:01:36.818Z,2.80
2017-10-30T05:04:03.337Z,2.23
2017-10-30T05:06:29.778Z,2.93
2017-10-30T05:08:56.271Z,2.30
2017-10-30T05:11:22.652Z,2.50
2017-10-30T05:13:49.076Z,2.83
2017-10-30T05:16:15.723Z,2.33
2017-10-30T05:18:42.159Z,2.67
2017-10-30T05:21:08.786Z,2.43
2017-10-30T05:23:35.437Z,2.13
2017-10-30T05:26:01.940Z,2.07
2017-10-30T05:28:28.455Z,2.60
2017-10-30T05:30:54.897Z,2.80
2017-10-30T05:33:21.365Z,2.60
2017-10-30T05:35:48.006Z,2.40
2017-10-30T05:38:14.647Z,2.30
2017-10-30T05:40:41.140Z,3.50
2017-10-30T05:43:07.581Z,2.73
2017-10-30T05:45:33.956Z,2.90
2017-10-30T05:48:00.587Z,3.17
2017-10-30T05:50:27.083Z,3.27
2017-10-30T05:52:53.524Z,2.63
2017-10-30T05:55:19.942Z,2.43
2017-10-30T05:57:46.383Z,2.70
2017-10-30T06:00:12.960Z,2.90
2017-10-30T06:02:39.566Z,2.47
2017-10-30T06:05:06.011Z,2.37
2017-10-30T06:07:32.676Z,2.27
2017-10-30T06:09:59.194Z,1.80
2017-10-30T06:12:25.537Z,2.23
2017-10-30T06:14:51.999Z,3.00
2017-10-30T06:17:18.612Z,2.30
2017-10-30T06:19:45.087Z,2.47
2017-10-30T06:22:11.551Z,3.30
2017-10-30T06:24:38.069Z,3.00
2017-10-30T06:27:04.403Z,3.73
2017-10-30T06:29:30.955Z,2.53
2017-10-30T06:31:57.372Z,2.93
2017-10-30T06:34:23.737Z,3.30
2017-10-30T06:36:50.239Z,2.37
2017-10-30T06:39:16.671Z,3.13
2017-10-30T06:41:43.111Z,1.63
2017-10-30T06:44:09.785Z,2.60
2017-10-30T06:46:36.398Z,1.43
2017-10-30T06:49:02.814Z,35.33
2017-10-30T06:51:29.255Z,2.03
2017-10-30T06:53:55.518Z,1.73
2017-10-30T06:56:22.040Z,2.60
2017-10-30T06:58:48.702Z,1.93
2017-10-30T07:01:15.174Z,2.20
2017-10-30T07:03:41.764Z,1.83
2017-10-30T07:06:08.383Z,2.77
2017-10-30T07:08:34.940Z,1.90
2017-10-30T07:11:01.440Z,2.40
2017-10-30T07:13:28.113Z,2.20
2017-10-30T07:15:54.749Z,2.10
2017-10-30T07:18:21.369Z,3.10
2017-10-30T07:20:48.027Z,2.77
2017-10-30T07:23:14.571Z,2.60
2017-10-30T07:25:41.070Z,1.50
2017-10-30T07:28:07.586Z,1.57
2017-10-30T07:30:34.152Z,1.70
2017-10-30T07:33:00.670Z,1.70
2017-10-30T07:35:27.138Z,1.50
2017-10-30T07:37:53.984Z,1.30
2017-10-30T07:40:20.416Z,1.70
2017-10-30T07:42:46.911Z,1.40
2017-10-30T07:45:13.284Z,1.50
2017-10-30T07:47:39.716Z,1.70
2017-10-30T07:50:06.215Z,2.07
2017-10-30T07:52:32.787Z,2.20
2017-10-30T07:54:59.220Z,1.90
2017-10-30T07:57:25.839Z,1.87
2017-10-30T07:59:52.257Z,1.87
2017-10-30T08:02:18.675Z,2.07
2017-10-30T08:04:45.366Z,1.40
2017-10-30T08:07:11.798Z,1.47
2017-10-30T08:09:38.299Z,4.10
2017-10-30T08:12:04.715Z,1.40
2017-10-30T08:14:31.159Z,1.30
2017-10-30T08:16:57.675Z,1.40
2017-10-30T08:19:24.113Z,1.43
2017-10-30T08:21:50.560Z,1.70
2017-10-30T08:24:17.032Z,1.80
2017-10-30T08:26:43.517Z,1.50
2017-10-30T08:29:09.961Z,1.90
2017-10-30T08:31:36.344Z,1.50
2017-10-30T08:34:02.819Z,2.00
2017-10-30T08:36:29.261Z,1.80
2017-10-30T08:38:55.702Z,1.57
2017-10-30T08:41:22.121Z,1.80
2017-10-30T08:43:48.708Z,1.23
2017-10-30T08:46:15.324Z,2.20
2017-10-30T08:48:41.982Z,1.57
2017-10-30T08:51:08.464Z,1.17
2017-10-30T08:53:35.057Z,1.60
2017-10-30T08:56:01.447Z,1.40
2017-10-30T08:58:27.787Z,1.90
2017-10-30T09:00:54.357Z,1.70
2017-10-30T09:03:20.973Z,1.70
2017-10-30T09:05:47.389Z,1.50
2017-10-30T09:08:13.832Z,2.50
2017-10-30T09:10:40.349Z,3.10
2017-10-30T09:13:06.799Z,2.30
2017-10-30T09:15:33.234Z,2.40
2017-10-30T09:17:59.749Z,3.43
2017-10-30T09:20:26.190Z,2.27
2017-10-30T09:22:52.534Z,4.63
2017-10-30T09:25:19.050Z,2.37
2017-10-30T09:27:45.496Z,1.53
2017-10-30T09:30:11.835Z,2.67
2017-10-30T09:32:38.250Z,2.47
2017-10-30T09:35:04.718Z,1.70
2017-10-30T09:37:31.265Z,2.13
2017-10-30T09:39:57.748Z,1.23
2017-10-30T09:42:24.316Z,2.40
2017-10-30T09:44:50.737Z,2.63
2017-10-30T09:47:17.411Z,1.83
2017-10-30T09:49:44.051Z,2.97
2017-10-30T09:52:10.664Z,2.93
2017-10-30T09:54:37.182Z,2.10
2017-10-30T09:57:03.622Z,1.47
2017-10-30T09:59:30.036Z,1.73
2017-10-30T10:01:56.476Z,1.27
2017-10-30T10:04:23.081Z,2.30
2017-10-30T10:06:49.666Z,1.80
2017-10-30T10:09:16.307Z,1.77
2017-10-30T10:11:42.726Z,1.53
2017-10-30T10:14:09.166Z,1.60
2017-10-30T10:16:35.846Z,2.30
2017-10-30T10:19:02.324Z,1.60
2017-10-30T10:21:28.911Z,1.40
2017-10-30T10:23:55.530Z,1.00
2017-10-30T10:26:21.932Z,2.10
2017-10-30T10:28:48.367Z,1.47
2017-10-30T10:31:15.032Z,1.67
2017-10-30T10:33:41.703Z,1.77
2017-10-30T10:36:08.362Z,1.80
2017-10-30T10:38:34.970Z,2.00
2017-10-30T10:41:01.455Z,1.53
2017-10-30T10:43:28.038Z,1.57
2017-10-30T10:45:54.663Z,1.73
2017-10-30T10:48:21.316Z,1.57
2017-10-30T10:50:47.820Z,2.67
2017-10-30T10:53:14.338Z,2.83
2017-10-30T10:55:40.781Z,3.40
2017-10-30T10:58:07.459Z,2.17
2017-10-30T11:00:34.098Z,1.87
2017-10-30T11:03:00.344Z,1.90
2017-10-30T11:05:26.593Z,1.60
2017-10-30T11:07:52.874Z,1.40
2017-10-30T11:10:19.095Z,1.37
2017-10-30T11:12:45.351Z,1.47
2017-10-30T11:15:11.628Z,3.73
2017-10-30T11:17:37.860Z,2.00
2017-10-30T11:20:04.087Z,2.33
2017-10-30T11:22:30.363Z,3.13
2017-10-30T11:24:56.600Z,2.40
2017-10-30T11:27:22.902Z,1.93
2017-10-30T11:29:49.543Z,2.87
2017-10-30T11:32:15.960Z,2.27
2017-10-30T11:34:42.423Z,2.40
2017-10-30T11:37:09.043Z,2.40
2017-10-30T11:39:35.293Z,2.50
2017-10-30T11:42:01.777Z,1.97
2017-10-30T11:44:28.222Z,2.80
2017-10-30T11:46:54.661Z,2.83
2017-10-30T11:49:21.230Z,2.70
2017-10-30T11:51:47.663Z,1.50
2017-10-30T11:54:14.164Z,1.53
2017-10-30T11:56:40.728Z,2.00
2017-10-30T11:59:07.247Z,3.20
2017-10-30T12:01:33.769Z,3.90
2017-10-30T12:04:00.106Z,1.93
2017-10-30T12:06:26.622Z,1.93
2017-10-30T12:08:52.966Z,3.10
2017-10-30T12:11:19.541Z,2.37
2017-10-30T12:13:46.177Z,2.50
2017-10-30T12:16:12.667Z,1.93
2017-10-30T12:18:39.109Z,3.37
2017-10-30T12:21:05.624Z,1.70
2017-10-30T12:23:32.068Z,1.73
2017-10-30T12:25:58.409Z,1.33
2017-10-30T12:28:24.773Z,1.80
2017-10-30T12:30:51.391Z,2.10
2017-10-30T12:33:17.813Z,14.33
2017-10-30T12:35:44.490Z,7.80
2017-10-30T12:38:10.924Z,6.30
2017-10-30T12:40:37.314Z,10.90
2017-10-30T12:43:03.992Z,14.77
2017-10-30T12:45:30.494Z,26.27
2017-10-30T12:47:56.861Z,11.83
2017-10-30T12:50:23.110Z,21.50
2017-10-30T12:52:49.525Z,17.77
2017-10-30T12:55:16.138Z,3.50
2017-10-30T12:57:42.826Z,6.50
2017-10-30T13:00:09.625Z,11.57
2017-10-30T13:02:36.063Z,16.73
2017-10-30T13:05:02.556Z,28.87
2017-10-30T13:07:28.777Z,4.70
2017-10-30T13:09:55.004Z,9.37
2017-10-30T13:12:21.276Z,20.47
2017-10-30T13:14:47.795Z,8.17
2017-10-30T13:17:14.241Z,31.40
2017-10-30T13:19:40.534Z,14.80
2017-10-30T13:22:06.765Z,9.30
2017-10-30T13:36:32.215Z,23.97
2017-10-30T13:38:58.717Z,7.27
2017-10-30T13:41:25.372Z,11.10
2017-10-30T13:43:52.016Z,20.40
2017-10-30T13:46:18.494Z,16.87
2017-10-30T13:48:44.973Z,9.70
2017-10-30T13:51:11.489Z,14.70
2017-10-30T13:53:37.907Z,7.70
2017-10-30T13:56:04.349Z,5.70
2017-10-30T13:58:31.033Z,17.27
2017-10-30T14:00:57.265Z,10.20
2017-10-30T14:03:23.775Z,9.50
2017-10-30T14:05:50.191Z,10.00
2017-10-30T14:08:16.634Z,3.60
2017-10-30T14:10:43.050Z,13.10
2017-10-30T14:13:09.569Z,6.80
2017-10-30T14:15:36.039Z,8.47
2017-10-30T14:18:02.500Z,8.87
2017-10-30T14:20:28.992Z,13.70
2017-10-30T14:22:55.572Z,19.07
2017-10-30T14:25:22.015Z,43.03
2017-10-30T14:27:48.430Z,24.30
2017-10-30T14:30:15.075Z,6.90
2017-10-30T14:32:41.306Z,9.13
2017-10-30T14:35:07.920Z,16.13
2017-10-30T14:37:34.362Z,21.00
2017-10-30T14:40:00.811Z,13.80
2017-10-30T14:42:27.293Z,17.23
2017-10-30T14:44:53.736Z,9.53
2017-10-30T14:47:20.186Z,11.30
2017-10-30T14:49:46.693Z,6.70
2017-10-30T14:52:13.137Z,11.73
2017-10-30T14:54:39.369Z,6.70
2017-10-30T14:57:05.645Z,7.87
2017-10-30T14:59:31.860Z,24.73
2017-10-30T15:01:58.105Z,13.03
2017-10-30T15:04:24.384Z,7.10
2017-10-30T15:06:50.616Z,10.00
2017-10-30T15:09:16.842Z,11.40
2017-10-30T15:11:43.212Z,11.70
2017-10-30T15:14:09.447Z,14.27
2017-10-30T15:16:35.702Z,10.77
2017-10-30T15:19:01.974Z,23.17
2017-10-30T15:21:28.246Z,15.77
2017-10-30T15:23:54.478Z,17.20
2017-10-30T15:26:20.741Z,20.10
2017-10-30T15:28:46.971Z,14.90
2017-10-30T15:31:13.192Z,14.73
2017-10-30T15:33:39.455Z,16.10
2017-10-30T15:36:05.679Z,10.23
2017-10-30T15:38:31.909Z,14.47
2017-10-30T15:40:58.178Z,12.70
2017-10-30T15:43:24.601Z,14.33
2017-10-30T15:45:51.083Z,15.57
2017-10-30T15:48:17.670Z,18.43
2017-10-30T15:50:44.307Z,16.60
2017-10-30T15:53:10.658Z,20.57
2017-10-30T15:55:37.125Z,32.13
2017-10-30T15:58:03.566Z,16.53
2017-10-30T16:00:29.984Z,18.13
2017-10-30T16:02:56.229Z,20.00
2017-10-30T16:05:22.446Z,21.23
2017-10-30T16:07:48.687Z,14.03
2017-10-30T16:10:14.968Z,18.43
2017-10-30T16:12:41.280Z,51.73
2017-10-30T16:15:07.483Z,31.67
2017-10-30T16:17:33.724Z,32.10
2017-10-30T16:19:59.957Z,34.90
2017-10-30T16:22:26.208Z,19.83
2017-10-30T16:24:52.472Z,27.13
2017-10-30T16:27:18.676Z,18.87
2017-10-30T16:29:44.898Z,21.77
2017-10-30T16:32:11.301Z,25.90
2017-10-30T16:34:37.526Z,105.87
2017-10-30T16:37:03.756Z,31.57
2017-10-30T16:39:30.022Z,12.37
2017-10-30T16:41:56.257Z,19.17
2017-10-30T16:44:22.491Z,21.73
2017-10-30T16:46:48.755Z,17.23
2017-10-30T16:49:14.979Z,29.40
2017-10-30T16:51:41.214Z,27.60
2017-10-30T16:54:07.563Z,24.73
2017-10-30T16:56:33.801Z,21.10
2017-10-30T16:59:00.044Z,14.07
2017-10-30T17:01:26.343Z,22.23
2017-10-30T17:03:52.570Z,17.03
2017-10-30T17:06:18.816Z,16.17
2017-10-30T17:08:45.068Z,18.77
2017-10-30T17:11:11.309Z,22.73
2017-10-30T17:13:37.621Z,16.70
2017-10-30T17:16:03.926Z,17.80
2017-10-30T17:18:30.154Z,16.23
2017-10-30T17:20:56.382Z,16.87
2017-10-30T17:23:22.657Z,13.30
2017-10-30T17:25:48.876Z,26.60
2017-10-30T17:28:15.108Z,15.10
2017-10-30T17:30:41.386Z,16.30
2017-10-30T17:33:07.609Z,14.20
2017-10-30T17:35:33.839Z,13.00
2017-10-30T17:38:00.099Z,17.07
2017-10-30T17:40:26.334Z,23.37
2017-10-30T17:42:52.590Z,20.73
2017-10-30T17:45:18.858Z,16.73
2017-10-30T17:47:45.080Z,19.60
2017-10-30T17:50:11.320Z,56.37
2017-10-30T17:52:37.627Z,27.50
2017-10-30T17:55:03.868Z,22.40
2017-10-30T17:57:30.146Z,17.50
2017-10-30T17:59:56.465Z,13.77
2017-10-30T18:02:22.690Z,21.20
2017-10-30T18:04:48.936Z,18.23
2017-10-30T18:07:15.281Z,19.67
2017-10-30T18:09:41.515Z,18.57
2017-10-30T18:12:07.762Z,13.00
2017-10-30T18:14:34.042Z,14.67
2017-10-30T18:17:00.317Z,10.77
2017-10-30T18:19:26.556Z,11.20
2017-10-30T18:21:52.827Z,9.00
2017-10-30T18:24:19.274Z,10.70
2017-10-30T18:26:45.526Z,12.10
2017-10-30T18:29:11.804Z,15.43
2017-10-30T18:31:38.028Z,18.63
2017-10-30T18:34:04.260Z,13.37
2017-10-30T18:36:30.526Z,12.60
2017-10-30T18:38:56.747Z,13.03
2017-10-30T18:41:22.988Z,15.20
2017-10-30T18:43:49.275Z,15.73
2017-10-30T18:46:15.512Z,18.60
2017-10-30T18:48:41.750Z,17.93
2017-10-30T18:51:08.030Z,12.17
2017-10-30T18:53:34.271Z,10.27
2017-10-30T18:56:00.504Z,7.60
2017-10-30T18:58:26.790Z,11.53
2017-10-30T19:00:53.013Z,17.77
2017-10-30T19:03:19.259Z,16.30
2017-10-30T19:05:45.512Z,14.67
2017-10-30T19:08:11.735Z,12.20
2017-10-30T19:10:38.025Z,14.37
2017-10-30T19:13:04.311Z,12.50
2017-10-30T19:15:30.669Z,11.67
2017-10-30T19:17:56.904Z,12.83
2017-10-30T19:20:23.192Z,9.20
2017-10-30T19:22:49.414Z,10.57
2017-10-30T19:25:15.659Z,10.23
2017-10-30T19:27:41.955Z,10.03
2017-10-30T19:30:08.179Z,7.10
2017-10-30T19:32:34.423Z,7.50
2017-10-30T19:35:00.703Z,7.97
2017-10-30T19:37:26.936Z,5.97
2017-10-30T19:39:53.145Z,6.17
2017-10-30T19:42:19.409Z,7.50
2017-10-30T19:44:45.638Z,8.23
2017-10-30T19:47:11.867Z,12.80
2017-10-30T19:49:38.145Z,9.47
2017-10-30T19:52:04.560Z,8.37
2017-10-30T19:54:30.856Z,8.87
2017-10-30T19:56:57.274Z,7.23
2017-10-30T19:59:23.503Z,6.80
2017-10-30T20:01:49.744Z,10.07
2017-10-30T20:04:16.031Z,7.20
2017-10-30T20:06:42.254Z,8.27
2017-10-30T20:09:08.483Z,6.47
2017-10-30T20:11:34.727Z,6.07
2017-10-30T20:14:00.959Z,6.60
2017-10-30T20:16:27.191Z,9.20
2017-10-30T20:18:53.470Z,6.00
2017-10-30T20:21:19.701Z,5.83
2017-10-30T20:23:45.924Z,6.17
2017-10-30T20:26:12.328Z,5.30
2017-10-30T20:28:38.558Z,7.47
2017-10-30T20:31:05.036Z,5.40
2017-10-30T20:33:31.320Z,3.77
2017-10-30T20:35:57.560Z,4.80
2017-10-30T20:38:23.801Z,5.10
2017-10-30T20:40:50.073Z,4.80
2017-10-30T20:43:16.305Z,3.63
2017-10-30T20:45:42.540Z,6.83
2017-10-30T20:48:08.813Z,3.70
2017-10-30T20:50:35.050Z,5.93
2017-10-30T20:53:01.346Z,6.87
2017-10-30T20:55:27.637Z,6.80
2017-10-30T20:57:53.884Z,4.90
2017-10-30T21:00:20.122Z,8.57
2017-10-30T21:02:46.420Z,8.50
2017-10-30T21:05:12.683Z,8.17
2017-10-30T21:07:38.929Z,8.77
2017-10-30T21:10:05.196Z,10.63
2017-10-30T21:12:31.417Z,8.30
2017-10-30T21:14:57.655Z,7.50
2017-10-30T21:17:23.938Z,6.93
2017-10-30T21:19:50.159Z,8.10
2017-10-30T21:22:16.379Z,8.27
2017-10-30T21:24:42.653Z,7.37
2017-10-30T21:27:08.904Z,5.83
2017-10-30T21:29:35.136Z,4.90
2017-10-30T21:32:01.420Z,5.77
2017-10-30T21:34:27.652Z,4.33
2017-10-30T21:36:53.890Z,5.55
2017-10-30T21:39:20.147Z,6.72
2017-10-30T21:41:46.380Z,6.50
2017-10-30T21:44:12.634Z,5.27
2017-10-30T21:46:38.921Z,3.97
2017-10-30T21:49:05.171Z,4.00
2017-10-30T21:51:31.426Z,4.40
2017-10-30T21:53:57.709Z,3.63
2017-10-30T21:56:23.947Z,4.63
2017-10-30T21:58:50.188Z,4.97
2017-10-30T22:01:16.586Z,3.30
2017-10-30T22:03:42.830Z,3.70
2017-10-30T22:06:09.248Z,3.73
2017-10-30T22:08:35.537Z,3.37
2017-10-30T22:11:01.778Z,3.60
2017-10-30T22:13:27.992Z,4.33
2017-10-30T22:15:54.287Z,3.07
2017-10-30T22:18:20.520Z,3.63
2017-10-30T22:20:46.749Z,2.83
2017-10-30T22:23:13.027Z,3.30
2017-10-30T22:25:39.261Z,4.07
2017-10-30T22:28:05.492Z,3.10
2017-10-30T22:30:31.775Z,2.43
2017-10-30T22:32:58.004Z,2.23
2017-10-30T22:35:24.230Z,3.80
2017-10-30T22:37:50.512Z,3.67
2017-10-30T22:40:16.769Z,3.30
2017-10-30T22:42:43.007Z,3.00
2017-10-30T22:45:09.302Z,3.10
2017-10-30T22:47:35.554Z,3.90
2017-10-30T22:50:01.779Z,3.77
2017-10-30T22:52:28.047Z,3.80
2017-10-30T22:54:54.297Z,3.53
2017-10-30T22:57:20.560Z,3.07
2017-10-30T22:59:46.892Z,3.77
2017-10-30T23:02:13.139Z,3.03
2017-10-30T23:04:39.394Z,3.20
2017-10-30T23:07:05.684Z,2.60
2017-10-30T23:09:32.015Z,3.00
2017-10-30T23:11:58.242Z,3.77
2017-10-30T23:14:24.531Z,4.10
2017-10-30T23:16:50.764Z,3.37
2017-10-30T23:19:17.004Z,2.27
2017-10-30T23:21:43.294Z,2.40
2017-10-30T23:24:09.534Z,1.80
2017-10-30T23:26:35.775Z,1.87
2017-10-30T23:29:02.055Z,1.77
2017-10-30T23:31:28.296Z,2.33
2017-10-30T23:33:54.543Z,2.97
2017-10-30T23:36:20.833Z,2.10
2017-10-30T23:38:47.062Z,2.03
2017-10-30T23:41:13.297Z,2.67
2017-10-30T23:43:39.608Z,2.50
2017-10-30T23:46:05.852Z,3.20
2017-10-30T23:48:32.101Z,2.13
2017-10-30T23:50:58.373Z,2.40
2017-10-30T23:53:24.606Z,1.97
2017-10-30T23:55:50.847Z,2.00
2017-10-30T23:58:17.160Z,3.07
